createdAt,value
2022-10-22T00:00:30.118Z,88
2022-10-22T00:01:07.250Z,87
2022-10-22T00:01:34.084Z,87
2022-10-22T00:02:06.016Z,87
2022-10-22T00:02:35.926Z,87
2022-10-22T00:02:54.138Z,87
2022-10-22T00:03:26.094Z,87
2022-10-22T00:03:42.870Z,87
2022-10-22T00:04:13.972Z,87
2022-10-22T00:04:35.698Z,87
2022-10-22T00:05:02.192Z,87
2022-10-22T00:05:34.098Z,86
2022-10-22T00:06:06.133Z,86
2022-10-22T00:06:34.823Z,86
2022-10-22T00:06:54.000Z,86
2022-10-22T00:07:26.172Z,86
2022-10-22T00:07:58.874Z,86
2022-10-22T00:08:30.145Z,86
2022-10-22T00:09:02.555Z,86
2022-10-22T00:09:34.008Z,86
2022-10-22T00:10:05.987Z,86
2022-10-22T00:10:34.872Z,86
2022-10-22T00:10:53.970Z,86
2022-10-22T00:11:26.010Z,86
2022-10-22T00:11:42.537Z,86
2022-10-22T00:12:18.975Z,86
2022-10-22T00:12:39.922Z,86
2022-10-22T00:13:03.078Z,86
2022-10-22T00:13:34.037Z,86
2022-10-22T00:14:06.037Z,86
2022-10-22T00:14:35.415Z,86
2022-10-22T00:14:54.043Z,86
2022-10-22T00:15:26.109Z,86
2022-10-22T00:15:42.617Z,86
2022-10-22T00:16:14.026Z,86
2022-10-22T00:16:34.830Z,86
2022-10-22T00:17:02.427Z,86
2022-10-22T00:17:34.209Z,86
2022-10-22T00:18:06.748Z,86
2022-10-22T00:18:35.034Z,86
2022-10-22T00:18:54.039Z,86
2022-10-22T00:19:26.043Z,86
2022-10-22T00:19:42.869Z,85
2022-10-22T00:20:14.064Z,85
2022-10-22T00:20:35.443Z,85
2022-10-22T00:21:02.361Z,85
2022-10-22T00:21:34.498Z,85
2022-10-22T00:22:05.966Z,85
2022-10-22T00:22:34.982Z,85
2022-10-22T00:22:54.343Z,84
2022-10-22T00:23:30.995Z,84
2022-10-22T00:23:42.986Z,84
2022-10-22T00:24:14.207Z,84
2022-10-22T00:24:35.014Z,84
2022-10-22T00:25:02.412Z,84
2022-10-22T00:25:34.588Z,84
2022-10-22T00:26:05.938Z,84
2022-10-22T00:26:39.910Z,83
2022-10-22T00:26:54.133Z,83
2022-10-22T00:27:25.932Z,83
2022-10-22T00:27:43.133Z,83
2022-10-22T00:28:14.875Z,83
2022-10-22T00:28:34.826Z,83
2022-10-22T00:29:07.349Z,83
2022-10-22T00:29:34.128Z,83
2022-10-22T00:30:06.779Z,83
2022-10-22T00:30:34.925Z,83
2022-10-22T00:30:54.321Z,83
2022-10-22T00:31:26.183Z,84
2022-10-22T00:31:58.233Z,83
2022-10-22T00:32:30.041Z,83
2022-10-22T00:33:02.262Z,83
2022-10-22T00:33:34.022Z,83
2022-10-22T00:34:05.950Z,83
2022-10-22T00:34:35.068Z,83
2022-10-22T00:34:53.991Z,83
2022-10-22T00:35:26.180Z,83
2022-10-22T00:35:42.879Z,83
2022-10-22T00:36:14.164Z,83
2022-10-22T00:36:35.649Z,83
2022-10-22T00:37:02.272Z,83
2022-10-22T00:37:34.550Z,83
2022-10-22T00:38:06.047Z,83
2022-10-22T00:38:34.859Z,83
2022-10-22T00:38:53.990Z,83
2022-10-22T00:39:25.996Z,83
2022-10-22T00:39:58.243Z,83
2022-10-22T00:40:30.188Z,83
2022-10-22T00:41:34.263Z,83
2022-10-22T00:42:06.018Z,83
2022-10-22T00:42:35.239Z,83
2022-10-22T00:42:54.094Z,83
2022-10-22T00:43:26.655Z,83
2022-10-22T00:43:57.946Z,83
2022-10-22T00:44:30.008Z,83
2022-10-22T00:45:02.484Z,83
2022-10-22T00:45:34.068Z,83
2022-10-22T00:46:06.007Z,83
2022-10-22T00:46:35.314Z,83
2022-10-22T00:46:53.954Z,84
2022-10-22T00:47:25.930Z,84
2022-10-22T00:47:43.398Z,84
2022-10-22T00:48:14.095Z,84
2022-10-22T00:48:34.879Z,84
2022-10-22T00:49:02.742Z,84
2022-10-22T00:49:33.931Z,84
2022-10-22T00:50:06.385Z,84
2022-10-22T00:50:34.885Z,84
2022-10-22T00:50:54.055Z,84
2022-10-22T00:51:31.233Z,85
2022-10-22T00:51:42.937Z,85
2022-10-22T00:52:14.031Z,85
2022-10-22T00:52:35.029Z,85
2022-10-22T00:53:02.630Z,85
2022-10-22T00:53:34.728Z,85
2022-10-22T00:54:06.266Z,85
2022-10-22T00:54:40.602Z,85
2022-10-22T00:54:54.041Z,85
2022-10-22T00:55:26.105Z,85
2022-10-22T00:55:58.257Z,85
2022-10-22T00:56:29.969Z,85
2022-10-22T00:57:07.416Z,85
2022-10-22T00:57:34.427Z,85
2022-10-22T00:58:06.178Z,85
2022-10-22T00:58:34.875Z,85
2022-10-22T00:58:54.060Z,85
2022-10-22T00:59:25.923Z,85
2022-10-22T00:59:42.934Z,85
2022-10-22T01:00:14.126Z,86
2022-10-22T01:00:34.871Z,86
2022-10-22T01:01:02.878Z,86
2022-10-22T01:01:33.932Z,86
2022-10-22T01:02:06.133Z,86
2022-10-22T01:02:34.958Z,86
2022-10-22T01:02:53.977Z,86
2022-10-22T01:03:26.011Z,86
2022-10-22T01:03:42.875Z,86
2022-10-22T01:04:13.981Z,86
2022-10-22T01:04:35.044Z,86
2022-10-22T01:05:02.441Z,86
2022-10-22T01:05:34.070Z,86
2022-10-22T01:06:06.036Z,86
2022-10-22T01:06:34.826Z,86
2022-10-22T01:06:54.721Z,86
2022-10-22T01:07:25.952Z,86
2022-10-22T01:07:42.941Z,86
2022-10-22T01:08:13.969Z,86
2022-10-22T01:08:35.167Z,86
2022-10-22T01:09:02.678Z,86
2022-10-22T01:09:33.982Z,86
2022-10-22T01:10:06.087Z,86
2022-10-22T01:10:34.965Z,86
2022-10-22T01:10:54.011Z,86
2022-10-22T01:11:26.093Z,86
2022-10-22T01:11:42.829Z,86
2022-10-22T01:12:14.033Z,86
2022-10-22T01:12:34.788Z,86
2022-10-22T01:13:02.535Z,86
2022-10-22T01:13:33.989Z,86
2022-10-22T01:14:06.025Z,86
2022-10-22T01:14:34.857Z,86
2022-10-22T01:14:56.646Z,87
2022-10-22T01:15:26.118Z,87
2022-10-22T01:15:43.005Z,87
2022-10-22T01:16:13.972Z,87
2022-10-22T01:16:34.824Z,87
2022-10-22T01:17:02.627Z,87
2022-10-22T01:17:34.102Z,87
2022-10-22T01:18:06.027Z,87
2022-10-22T01:18:34.833Z,87
2022-10-22T01:18:54.249Z,87
2022-10-22T01:19:31.124Z,87
2022-10-22T01:19:42.834Z,87
2022-10-22T01:20:14.145Z,87
2022-10-22T01:20:34.857Z,87
2022-10-22T01:21:02.276Z,87
2022-10-22T01:21:34.240Z,87
2022-10-22T01:22:06.752Z,87
2022-10-22T01:22:34.930Z,87
2022-10-22T01:22:54.032Z,87
2022-10-22T01:23:25.921Z,87
2022-10-22T01:23:42.870Z,87
2022-10-22T01:24:13.942Z,87
2022-10-22T01:24:34.768Z,87
2022-10-22T01:25:07.713Z,87
2022-10-22T01:25:34.106Z,87
2022-10-22T01:26:06.134Z,87
2022-10-22T01:26:34.822Z,87
2022-10-22T01:26:53.968Z,87
2022-10-22T01:27:26.060Z,87
2022-10-22T01:27:43.031Z,87
2022-10-22T01:28:14.058Z,87
2022-10-22T01:28:34.794Z,87
2022-10-22T01:29:02.183Z,87
2022-10-22T01:29:33.995Z,88
2022-10-22T01:30:06.357Z,88
2022-10-22T01:30:35.060Z,87
2022-10-22T01:30:53.981Z,87
2022-10-22T01:31:25.961Z,87
2022-10-22T01:31:42.866Z,87
2022-10-22T01:32:14.580Z,87
2022-10-22T01:32:34.871Z,87
2022-10-22T01:33:02.337Z,88
2022-10-22T01:33:33.989Z,88
2022-10-22T01:34:06.257Z,88
2022-10-22T01:34:34.865Z,88
2022-10-22T01:34:53.967Z,88
2022-10-22T01:35:26.039Z,88
2022-10-22T01:35:42.902Z,88
2022-10-22T01:36:13.921Z,88
2022-10-22T01:36:34.834Z,88
2022-10-22T01:37:02.230Z,88
2022-10-22T01:38:06.008Z,87
2022-10-22T01:38:34.783Z,87
2022-10-22T01:38:53.904Z,87
2022-10-22T01:39:26.439Z,87
2022-10-22T01:39:58.305Z,87
2022-10-22T01:40:29.948Z,88
2022-10-22T01:41:02.308Z,88
2022-10-22T01:41:34.109Z,88
2022-10-22T01:42:06.380Z,88
2022-10-22T01:42:34.874Z,88
2022-10-22T01:42:54.133Z,88
2022-10-22T01:43:26.132Z,88
2022-10-22T01:43:43.553Z,88
2022-10-22T01:44:14.172Z,88
2022-10-22T01:45:02.211Z,88
2022-10-22T01:45:33.961Z,88
2022-10-22T01:46:06.216Z,88
2022-10-22T01:46:35.500Z,88
2022-10-22T01:46:53.969Z,88
2022-10-22T01:47:31.998Z,88
2022-10-22T01:47:58.052Z,88
2022-10-22T01:48:30.259Z,88
2022-10-22T01:49:02.213Z,88
2022-10-22T01:49:34.188Z,88
2022-10-22T01:50:05.949Z,88
2022-10-22T01:50:34.901Z,88
2022-10-22T01:50:54.046Z,88
2022-10-22T01:51:25.991Z,88
2022-10-22T01:51:42.810Z,88
2022-10-22T01:52:14.143Z,88
2022-10-22T01:52:34.947Z,88
2022-10-22T01:53:07.526Z,88
2022-10-22T01:53:34.237Z,88
2022-10-22T01:54:11.069Z,88
2022-10-22T01:54:35.009Z,88
2022-10-22T01:54:54.158Z,88
2022-10-22T01:55:25.933Z,88
2022-10-22T01:55:42.832Z,88
2022-10-22T01:56:13.980Z,88
2022-10-22T01:56:34.815Z,88
2022-10-22T01:57:02.502Z,88
2022-10-22T01:57:34.111Z,88
2022-10-22T01:58:06.081Z,89
2022-10-22T01:58:35.166Z,89
2022-10-22T01:58:53.911Z,89
2022-10-22T01:59:26.101Z,89
2022-10-22T01:59:42.899Z,89
2022-10-22T02:00:14.312Z,89
2022-10-22T02:00:35.093Z,89
2022-10-22T02:01:02.409Z,89
2022-10-22T02:01:33.989Z,89
2022-10-22T02:02:06.648Z,88
2022-10-22T02:02:37.209Z,88
2022-10-22T02:02:54.029Z,88
2022-10-22T02:03:26.053Z,89
2022-10-22T02:03:42.975Z,89
2022-10-22T02:04:14.001Z,89
2022-10-22T02:04:34.943Z,89
2022-10-22T02:05:02.306Z,89
2022-10-22T02:05:34.702Z,89
2022-10-22T02:06:05.907Z,89
2022-10-22T02:06:35.667Z,89
2022-10-22T02:06:53.978Z,89
2022-10-22T02:07:25.976Z,89
2022-10-22T02:07:43.329Z,89
2022-10-22T02:08:13.997Z,89
2022-10-22T02:08:35.022Z,89
2022-10-22T02:09:02.396Z,89
2022-10-22T02:09:34.766Z,89
2022-10-22T02:10:05.915Z,89
2022-10-22T02:10:34.876Z,89
2022-10-22T02:10:59.034Z,89
2022-10-22T02:11:26.150Z,89
2022-10-22T02:11:43.163Z,89
2022-10-22T02:12:14.717Z,89
2022-10-22T02:12:35.025Z,89
2022-10-22T02:13:02.423Z,89
2022-10-22T02:13:34.383Z,89
2022-10-22T02:14:05.920Z,89
2022-10-22T02:14:35.155Z,89
2022-10-22T02:14:53.988Z,89
2022-10-22T02:15:26.073Z,89
2022-10-22T02:15:42.938Z,89
2022-10-22T02:16:13.996Z,89
2022-10-22T02:16:34.858Z,89
2022-10-22T02:17:02.299Z,89
2022-10-22T02:17:33.961Z,89
2022-10-22T02:18:05.997Z,89
2022-10-22T02:18:36.449Z,89
2022-10-22T02:18:54.059Z,89
2022-10-22T02:19:25.972Z,89
2022-10-22T02:19:42.931Z,89
2022-10-22T02:20:14.289Z,89
2022-10-22T02:20:35.110Z,89
2022-10-22T02:21:02.233Z,89
2022-10-22T02:21:34.038Z,89
2022-10-22T02:22:11.043Z,89
2022-10-22T02:22:35.174Z,89
2022-10-22T02:22:53.998Z,89
2022-10-22T02:23:26.068Z,89
2022-10-22T02:23:42.995Z,89
2022-10-22T02:24:14.011Z,89
2022-10-22T02:24:34.982Z,89
2022-10-22T02:25:02.331Z,89
2022-10-22T02:25:33.883Z,89
2022-10-22T02:26:06.053Z,89
2022-10-22T02:26:34.860Z,89
2022-10-22T02:26:54.077Z,89
2022-10-22T02:27:27.235Z,89
2022-10-22T02:27:58.311Z,89
2022-10-22T02:28:30.284Z,89
2022-10-22T02:29:02.315Z,89
2022-10-22T02:29:34.015Z,89
2022-10-22T02:30:06.607Z,89
2022-10-22T02:30:36.015Z,89
2022-10-22T02:30:54.135Z,89
2022-10-22T02:31:25.943Z,89
2022-10-22T02:31:58.250Z,89
2022-10-22T02:32:30.905Z,89
2022-10-22T02:33:02.370Z,89
2022-10-22T02:33:34.106Z,89
2022-10-22T02:34:05.874Z,89
2022-10-22T02:34:34.863Z,89
2022-10-22T02:34:54.006Z,88
2022-10-22T02:35:26.047Z,88
2022-10-22T02:35:58.276Z,88
2022-10-22T02:36:30.041Z,88
2022-10-22T02:37:02.347Z,88
2022-10-22T02:37:35.136Z,88
2022-10-22T02:38:06.102Z,88
2022-10-22T02:38:34.906Z,88
2022-10-22T02:38:58.965Z,88
2022-10-22T02:39:26.335Z,88
2022-10-22T02:39:58.227Z,88
2022-10-22T02:40:29.900Z,88
2022-10-22T02:41:02.443Z,88
2022-10-22T02:41:34.172Z,88
2022-10-22T02:42:05.975Z,88
2022-10-22T02:42:35.667Z,88
2022-10-22T02:42:54.044Z,88
2022-10-22T02:43:26.135Z,88
2022-10-22T02:43:42.852Z,88
2022-10-22T02:44:13.875Z,88
2022-10-22T02:44:34.874Z,88
2022-10-22T02:45:02.371Z,88
2022-10-22T02:45:34.427Z,88
2022-10-22T02:46:05.875Z,88
2022-10-22T02:46:34.902Z,89
2022-10-22T02:46:53.984Z,89
2022-10-22T02:47:25.928Z,88
2022-10-22T02:47:43.491Z,88
2022-10-22T02:48:13.940Z,89
2022-10-22T02:48:35.729Z,89
2022-10-22T02:49:02.156Z,89
2022-10-22T02:49:34.040Z,89
2022-10-22T02:50:10.987Z,89
2022-10-22T02:50:35.142Z,89
2022-10-22T02:50:53.935Z,89
2022-10-22T02:51:26.143Z,89
2022-10-22T02:51:57.958Z,89
2022-10-22T02:52:29.965Z,89
2022-10-22T02:53:02.018Z,89
2022-10-22T02:53:34.045Z,89
2022-10-22T02:54:05.988Z,89
2022-10-22T02:54:35.381Z,89
2022-10-22T02:54:53.917Z,89
2022-10-22T02:55:26.006Z,89
2022-10-22T02:55:58.186Z,89
2022-10-22T02:56:29.939Z,89
2022-10-22T02:57:02.131Z,89
2022-10-22T02:57:33.917Z,89
2022-10-22T02:58:05.973Z,89
2022-10-22T02:58:34.804Z,89
2022-10-22T02:58:54.049Z,89
2022-10-22T02:59:25.912Z,89
2022-10-22T02:59:58.261Z,89
2022-10-22T03:00:30.248Z,89
2022-10-22T03:01:02.162Z,90
2022-10-22T03:01:34.034Z,89
2022-10-22T03:02:06.717Z,90
2022-10-22T03:02:34.968Z,90
2022-10-22T03:02:54.004Z,90
2022-10-22T03:03:25.915Z,90
2022-10-22T03:03:57.936Z,90
2022-10-22T03:04:29.930Z,90
2022-10-22T03:05:02.025Z,90
2022-10-22T03:05:34.157Z,90
2022-10-22T03:06:05.925Z,90
2022-10-22T03:06:34.911Z,90
2022-10-22T03:06:59.215Z,90
2022-10-22T03:07:25.926Z,90
2022-10-22T03:07:57.897Z,90
2022-10-22T03:08:30.108Z,90
2022-10-22T03:09:02.455Z,90
2022-10-22T03:09:33.872Z,90
2022-10-22T03:10:05.896Z,90
2022-10-22T03:10:39.043Z,90
2022-10-22T03:11:09.827Z,90
2022-10-22T03:11:34.919Z,90
2022-10-22T03:11:58.036Z,90
2022-10-22T03:12:34.957Z,90
2022-10-22T03:13:02.415Z,90
2022-10-22T03:13:34.235Z,90
2022-10-22T03:14:06.108Z,90
2022-10-22T03:14:34.908Z,90
2022-10-22T03:14:54.204Z,90
2022-10-22T03:15:58.095Z,89
2022-10-22T03:16:30.198Z,89
2022-10-22T03:17:02.179Z,89
2022-10-22T03:17:34.120Z,89
2022-10-22T03:18:11.108Z,89
2022-10-22T03:18:35.007Z,89
2022-10-22T03:18:53.871Z,89
2022-10-22T03:19:25.967Z,89
2022-10-22T03:19:43.086Z,89
2022-10-22T03:20:13.913Z,89
2022-10-22T03:20:34.982Z,89
2022-10-22T03:21:02.910Z,89
2022-10-22T03:21:33.930Z,90
2022-10-22T03:22:05.963Z,90
2022-10-22T03:22:34.967Z,90
2022-10-22T03:22:53.878Z,90
2022-10-22T03:23:25.895Z,90
2022-10-22T03:23:57.985Z,90
2022-10-22T03:24:29.945Z,90
2022-10-22T03:25:02.315Z,89
2022-10-22T03:25:34.643Z,89
2022-10-22T03:26:06.058Z,89
2022-10-22T03:26:35.034Z,89
2022-10-22T03:26:58.964Z,89
2022-10-22T03:27:26.545Z,89
2022-10-22T03:27:57.810Z,88
2022-10-22T03:28:29.924Z,88
2022-10-22T03:29:02.085Z,88
2022-10-22T03:29:34.061Z,88
2022-10-22T03:30:06.379Z,89
2022-10-22T03:30:34.966Z,89
2022-10-22T03:30:54.146Z,89
2022-10-22T03:31:25.967Z,89
2022-10-22T03:31:57.940Z,89
2022-10-22T03:32:30.503Z,89
2022-10-22T03:33:02.092Z,89
2022-10-22T03:33:35.632Z,89
2022-10-22T03:34:05.956Z,89
2022-10-22T03:34:35.665Z,89
2022-10-22T03:34:54.001Z,89
2022-10-22T03:35:25.917Z,89
2022-10-22T03:35:42.933Z,89
2022-10-22T03:36:14.165Z,89
2022-10-22T03:36:35.037Z,89
2022-10-22T03:37:02.070Z,89
2022-10-22T03:37:35.986Z,89
2022-10-22T03:38:05.948Z,89
2022-10-22T03:38:36.295Z,89
2022-10-22T03:38:53.900Z,89
2022-10-22T03:39:25.975Z,89
2022-10-22T03:39:58.030Z,89
2022-10-22T03:40:35.047Z,89
2022-10-22T03:41:02.187Z,89
2022-10-22T03:41:33.925Z,89
2022-10-22T03:42:05.916Z,89
2022-10-22T03:42:41.124Z,89
2022-10-22T03:42:53.897Z,89
2022-10-22T03:43:25.978Z,89
2022-10-22T03:43:57.908Z,89
2022-10-22T03:44:29.908Z,89
2022-10-22T03:45:02.253Z,89
2022-10-22T03:45:33.973Z,89
2022-10-22T03:46:10.938Z,90
2022-10-22T03:46:35.297Z,90
2022-10-22T03:46:57.402Z,90
2022-10-22T03:47:25.960Z,90
2022-10-22T03:47:58.681Z,90
2022-10-22T03:48:29.952Z,90
2022-10-22T03:49:02.171Z,90
2022-10-22T03:49:34.079Z,90
2022-10-22T03:50:05.976Z,90
2022-10-22T03:50:34.864Z,90
2022-10-22T03:50:53.899Z,90
2022-10-22T03:51:25.988Z,90
2022-10-22T03:51:58.072Z,90
2022-10-22T03:52:29.956Z,90
2022-10-22T03:53:03.442Z,90
2022-10-22T03:53:34.039Z,91
2022-10-22T03:54:05.877Z,91
2022-10-22T03:54:34.923Z,90
2022-10-22T03:54:53.849Z,90
2022-10-22T03:55:25.935Z,90
2022-10-22T03:55:57.940Z,91
2022-10-22T03:56:30.095Z,91
2022-10-22T03:57:02.083Z,91
2022-10-22T03:57:34.037Z,91
2022-10-22T03:58:06.007Z,91
2022-10-22T03:58:35.146Z,91
2022-10-22T03:58:53.906Z,91
2022-10-22T03:59:26.062Z,91
2022-10-22T03:59:57.933Z,91
2022-10-22T04:00:29.960Z,91
2022-10-22T04:01:02.178Z,91
2022-10-22T04:01:33.940Z,91
2022-10-22T04:02:09.625Z,91
2022-10-22T04:02:35.453Z,91
2022-10-22T04:02:53.987Z,91
2022-10-22T04:03:25.866Z,91
2022-10-22T04:03:57.960Z,91
2022-10-22T04:04:29.862Z,91
2022-10-22T04:05:02.201Z,91
2022-10-22T04:05:33.850Z,90
2022-10-22T04:06:06.078Z,90
2022-10-22T04:06:35.140Z,90
2022-10-22T04:06:53.887Z,90
2022-10-22T04:07:25.936Z,89
2022-10-22T04:07:57.911Z,89
2022-10-22T04:08:30.053Z,89
2022-10-22T04:09:02.118Z,88
2022-10-22T04:09:34.038Z,88
2022-10-22T04:10:06.038Z,88
2022-10-22T04:10:34.829Z,88
2022-10-22T04:10:53.992Z,87
2022-10-22T04:11:26.072Z,87
2022-10-22T04:11:57.973Z,87
2022-10-22T04:12:29.834Z,87
2022-10-22T04:13:02.251Z,86
2022-10-22T04:13:33.863Z,86
2022-10-22T04:14:05.913Z,87
2022-10-22T04:14:34.864Z,87
2022-10-22T04:14:53.842Z,87
2022-10-22T04:15:26.257Z,86
2022-10-22T04:15:57.893Z,86
2022-10-22T04:16:30.653Z,87
2022-10-22T04:17:02.167Z,87
2022-10-22T04:17:34.058Z,87
2022-10-22T04:18:05.966Z,87
2022-10-22T04:18:34.865Z,87
2022-10-22T04:18:53.842Z,87
2022-10-22T04:19:26.038Z,87
2022-10-22T04:19:43.151Z,87
2022-10-22T04:20:13.804Z,87
2022-10-22T04:20:34.943Z,87
2022-10-22T04:21:02.211Z,87
2022-10-22T04:21:34.039Z,87
2022-10-22T04:22:05.946Z,87
2022-10-22T04:22:34.877Z,87
2022-10-22T04:22:53.821Z,86
2022-10-22T04:23:26.080Z,86
2022-10-22T04:23:42.999Z,86
2022-10-22T04:24:13.976Z,86
2022-10-22T04:24:34.937Z,86
2022-10-22T04:25:02.006Z,87
2022-10-22T04:25:34.003Z,87
2022-10-22T04:26:07.345Z,87
2022-10-22T04:26:35.037Z,87
2022-10-22T04:26:53.888Z,87
2022-10-22T04:27:26.672Z,87
2022-10-22T04:27:58.071Z,87
2022-10-22T04:28:30.032Z,87
2022-10-22T04:29:02.229Z,87
2022-10-22T04:29:33.851Z,87
2022-10-22T04:30:06.074Z,87
2022-10-22T04:30:34.993Z,87
2022-10-22T04:30:54.100Z,87
2022-10-22T04:31:25.918Z,87
2022-10-22T04:32:02.902Z,87
2022-10-22T04:32:30.815Z,87
2022-10-22T04:33:01.877Z,87
2022-10-22T04:33:33.895Z,87
2022-10-22T04:34:05.850Z,87
2022-10-22T04:34:34.853Z,87
2022-10-22T04:34:53.908Z,87
2022-10-22T04:35:58.192Z,87
2022-10-22T04:36:29.995Z,88
2022-10-22T04:37:02.246Z,88
2022-10-22T04:37:34.544Z,88
2022-10-22T04:38:06.054Z,88
2022-10-22T04:38:34.914Z,88
2022-10-22T04:38:53.869Z,88
2022-10-22T04:39:25.955Z,88
2022-10-22T04:39:58.330Z,88
2022-10-22T04:40:29.996Z,88
2022-10-22T04:41:01.885Z,88
2022-10-22T04:41:34.317Z,88
2022-10-22T04:42:05.980Z,88
2022-10-22T04:42:35.946Z,88
2022-10-22T04:42:53.923Z,88
2022-10-22T04:43:25.905Z,88
2022-10-22T04:43:57.962Z,89
2022-10-22T04:44:30.085Z,89
2022-10-22T04:45:02.049Z,89
2022-10-22T04:45:33.908Z,89
2022-10-22T04:46:05.801Z,89
2022-10-22T04:46:35.337Z,89
2022-10-22T04:46:54.924Z,89
2022-10-22T04:47:25.881Z,89
2022-10-22T04:47:59.730Z,89
2022-10-22T04:48:29.668Z,89
2022-10-22T04:49:01.900Z,89
2022-10-22T04:49:33.858Z,89
2022-10-22T04:50:05.941Z,89
2022-10-22T04:50:34.901Z,89
2022-10-22T04:50:53.806Z,89
2022-10-22T04:51:25.862Z,89
2022-10-22T04:51:58.027Z,90
2022-10-22T04:52:29.839Z,90
2022-10-22T04:53:02.851Z,90
2022-10-22T04:53:33.854Z,90
2022-10-22T04:54:08.238Z,90
2022-10-22T04:54:34.839Z,90
2022-10-22T04:54:53.820Z,90
2022-10-22T04:55:41.302Z,90
2022-10-22T04:55:57.719Z,90
2022-10-22T04:56:29.895Z,90
2022-10-22T04:57:02.191Z,90
2022-10-22T04:57:33.966Z,90
2022-10-22T04:58:06.069Z,90
2022-10-22T04:58:34.922Z,90
2022-10-22T04:58:53.896Z,90
2022-10-22T04:59:26.098Z,91
2022-10-22T04:59:42.888Z,91
2022-10-22T05:00:29.642Z,91
2022-10-22T05:01:02.000Z,91
2022-10-22T05:01:36.974Z,91
2022-10-22T05:02:06.675Z,91
2022-10-22T05:02:35.100Z,91
2022-10-22T05:02:54.060Z,91
2022-10-22T05:03:25.848Z,91
2022-10-22T05:03:57.994Z,91
2022-10-22T05:04:29.967Z,91
2022-10-22T05:05:02.339Z,91
2022-10-22T05:05:38.871Z,91
2022-10-22T05:06:06.071Z,90
2022-10-22T05:06:34.949Z,90
2022-10-22T05:06:53.970Z,90
2022-10-22T05:07:26.182Z,90
2022-10-22T05:07:57.861Z,90
2022-10-22T05:08:29.896Z,91
2022-10-22T05:09:02.685Z,91
2022-10-22T05:09:33.822Z,90
2022-10-22T05:10:05.956Z,90
2022-10-22T05:10:34.862Z,90
2022-10-22T05:10:53.934Z,90
2022-10-22T05:11:26.135Z,90
2022-10-22T05:11:43.182Z,90
2022-10-22T05:12:15.507Z,88
2022-10-22T05:12:35.572Z,88
2022-10-22T05:13:02.097Z,87
2022-10-22T05:13:33.988Z,87
2022-10-22T05:14:06.071Z,87
2022-10-22T05:14:34.945Z,87
2022-10-22T05:14:53.815Z,86
2022-10-22T05:15:26.202Z,86
2022-10-22T05:15:43.380Z,86
2022-10-22T05:16:13.810Z,86
2022-10-22T05:16:34.966Z,86
2022-10-22T05:17:02.051Z,86
2022-10-22T05:17:33.959Z,86
2022-10-22T05:18:05.966Z,86
2022-10-22T05:18:34.948Z,86
2022-10-22T05:18:54.007Z,86
2022-10-22T05:19:26.010Z,86
2022-10-22T05:19:57.889Z,86
2022-10-22T05:20:30.185Z,85
2022-10-22T05:21:01.878Z,85
2022-10-22T05:21:34.037Z,85
2022-10-22T05:22:05.905Z,84
2022-10-22T05:22:34.875Z,84
2022-10-22T05:22:53.857Z,85
2022-10-22T05:23:26.484Z,85
2022-10-22T05:23:58.022Z,84
2022-10-22T05:24:29.839Z,83
2022-10-22T05:25:01.974Z,83
2022-10-22T05:25:33.832Z,83
2022-10-22T05:26:05.860Z,83
2022-10-22T05:26:34.932Z,82
2022-10-22T05:26:53.874Z,84
2022-10-22T05:27:26.519Z,83
2022-10-22T05:27:43.583Z,83
2022-10-22T05:28:14.011Z,83
2022-10-22T05:28:34.890Z,83
2022-10-22T05:29:01.830Z,83
2022-10-22T05:29:33.880Z,83
2022-10-22T05:30:06.029Z,83
2022-10-22T05:30:34.948Z,82
2022-10-22T05:30:54.445Z,82
2022-10-22T05:31:25.979Z,82
2022-10-22T05:31:58.037Z,82
2022-10-22T05:32:35.924Z,82
2022-10-22T05:33:02.008Z,83
2022-10-22T05:33:38.937Z,83
2022-10-22T05:34:05.893Z,82
2022-10-22T05:34:34.869Z,82
2022-10-22T05:34:53.835Z,82
2022-10-22T05:35:25.879Z,82
2022-10-22T05:35:46.712Z,82
2022-10-22T05:36:13.870Z,82
2022-10-22T05:36:35.409Z,82
2022-10-22T05:37:01.758Z,82
2022-10-22T05:37:34.560Z,82
2022-10-22T05:38:05.997Z,82
2022-10-22T05:38:35.067Z,82
2022-10-22T05:38:53.924Z,82
2022-10-22T05:39:26.079Z,82
2022-10-22T05:40:06.833Z,82
2022-10-22T05:40:31.014Z,81
2022-10-22T05:41:02.049Z,82
2022-10-22T05:41:33.941Z,81
2022-10-22T05:42:06.006Z,81
2022-10-22T05:42:35.671Z,82
2022-10-22T05:42:54.019Z,81
2022-10-22T05:43:25.911Z,81
2022-10-22T05:43:48.228Z,81
2022-10-22T05:44:14.008Z,81
2022-10-22T05:44:34.894Z,81
2022-10-22T05:45:02.116Z,81
2022-10-22T05:45:34.355Z,81
2022-10-22T05:46:05.864Z,81
2022-10-22T05:46:34.967Z,80
2022-10-22T05:46:53.648Z,81
2022-10-22T05:47:25.967Z,80
2022-10-22T05:47:43.694Z,80
2022-10-22T05:48:13.818Z,80
2022-10-22T05:48:35.055Z,81
2022-10-22T05:49:02.166Z,81
2022-10-22T05:49:33.991Z,80
2022-10-22T05:50:05.935Z,81
2022-10-22T05:50:34.918Z,81
2022-10-22T05:50:53.917Z,81
2022-10-22T05:51:25.983Z,81
2022-10-22T05:51:43.380Z,81
2022-10-22T05:52:14.086Z,81
2022-10-22T05:52:35.001Z,82
2022-10-22T05:53:01.990Z,82
2022-10-22T05:53:33.913Z,82
2022-10-22T05:54:05.897Z,82
2022-10-22T05:54:35.095Z,82
2022-10-22T05:54:53.973Z,82
2022-10-22T05:55:25.896Z,82
2022-10-22T05:56:02.993Z,82
2022-10-22T05:56:29.985Z,82
2022-10-22T05:57:01.990Z,82
2022-10-22T05:57:34.061Z,82
2022-10-22T05:58:06.521Z,82
2022-10-22T05:58:34.912Z,82
2022-10-22T05:58:53.858Z,83
2022-10-22T05:59:26.001Z,83
2022-10-22T05:59:43.389Z,84
2022-10-22T06:00:15.771Z,84
2022-10-22T06:00:34.928Z,84
2022-10-22T06:01:01.995Z,84
2022-10-22T06:01:39.033Z,84
2022-10-22T06:02:05.968Z,84
2022-10-22T06:02:35.107Z,84
2022-10-22T06:02:54.040Z,84
2022-10-22T06:03:26.015Z,85
2022-10-22T06:03:58.104Z,85
2022-10-22T06:04:30.174Z,86
2022-10-22T06:05:02.250Z,86
2022-10-22T06:05:39.531Z,85
2022-10-22T06:06:06.024Z,86
2022-10-22T06:06:35.303Z,86
2022-10-22T06:06:54.043Z,86
2022-10-22T06:07:26.001Z,86
2022-10-22T06:07:43.383Z,86
2022-10-22T06:08:18.262Z,86
2022-10-22T06:08:35.106Z,86
2022-10-22T06:09:02.260Z,86
2022-10-22T06:09:34.163Z,86
2022-10-22T06:10:06.142Z,86
2022-10-22T06:10:35.603Z,86
2022-10-22T06:10:53.890Z,86
2022-10-22T06:11:26.235Z,86
2022-10-22T06:11:48.467Z,87
2022-10-22T06:12:14.328Z,87
2022-10-22T06:12:35.097Z,87
2022-10-22T06:13:02.162Z,87
2022-10-22T06:13:33.997Z,87
2022-10-22T06:14:06.226Z,87
2022-10-22T06:14:35.169Z,87
2022-10-22T06:14:53.939Z,87
2022-10-22T06:15:25.997Z,86
2022-10-22T06:15:43.632Z,86
2022-10-22T06:16:14.021Z,86
2022-10-22T06:16:35.164Z,86
2022-10-22T06:17:02.227Z,86
2022-10-22T06:17:34.046Z,87
2022-10-22T06:18:06.006Z,87
2022-10-22T06:18:35.169Z,86
2022-10-22T06:18:54.000Z,86
2022-10-22T06:19:25.944Z,87
2022-10-22T06:19:43.510Z,87
2022-10-22T06:20:14.096Z,87
2022-10-22T06:20:35.084Z,87
2022-10-22T06:21:02.205Z,87
2022-10-22T06:21:34.195Z,86
2022-10-22T06:22:06.113Z,87
2022-10-22T06:22:35.312Z,87
2022-10-22T06:22:53.942Z,87
2022-10-22T06:23:27.246Z,87
2022-10-22T06:23:43.358Z,87
2022-10-22T06:24:14.205Z,86
2022-10-22T06:24:35.229Z,86
2022-10-22T06:25:02.229Z,86
2022-10-22T06:25:34.259Z,87
2022-10-22T06:26:06.359Z,87
2022-10-22T06:26:35.710Z,86
2022-10-22T06:26:54.017Z,86
2022-10-22T06:27:26.123Z,86
2022-10-22T06:27:43.577Z,86
2022-10-22T06:28:14.221Z,86
2022-10-22T06:28:35.377Z,86
2022-10-22T06:29:02.155Z,85
2022-10-22T06:29:34.774Z,85
2022-10-22T06:30:08.851Z,85
2022-10-22T06:30:35.806Z,85
2022-10-22T06:30:54.028Z,85
2022-10-22T06:31:26.213Z,85
2022-10-22T06:31:43.572Z,84
2022-10-22T06:32:14.231Z,84
2022-10-22T06:32:35.283Z,84
2022-10-22T06:33:01.995Z,84
2022-10-22T06:33:34.766Z,84
2022-10-22T06:34:06.107Z,84
2022-10-22T06:34:35.315Z,84
2022-10-22T06:34:54.034Z,84
2022-10-22T06:35:26.040Z,84
2022-10-22T06:35:43.466Z,84
2022-10-22T06:36:14.266Z,84
2022-10-22T06:36:35.289Z,84
2022-10-22T06:37:02.212Z,84
2022-10-22T06:37:34.488Z,84
2022-10-22T06:38:06.142Z,84
2022-10-22T06:38:36.277Z,84
2022-10-22T06:38:54.233Z,84
2022-10-22T06:39:26.267Z,84
2022-10-22T06:39:58.056Z,84
2022-10-22T06:40:29.979Z,84
2022-10-22T06:41:01.977Z,84
2022-10-22T06:41:34.418Z,84
2022-10-22T06:42:05.993Z,84
2022-10-22T06:42:35.254Z,84
2022-10-22T06:42:54.052Z,84
2022-10-22T06:43:26.181Z,84
2022-10-22T06:43:58.657Z,84
2022-10-22T06:44:30.214Z,84
2022-10-22T06:45:34.072Z,84